sensor_id;sensor_type;location;lat;lon;timestamp;P1;durP1;ratioP1;P2;durP2;ratioP2
38853;SDS011;24606;51.992;4.198;2022-11-21T00:08:45;2.25;;;1.45;;
38853;SDS011;24606;51.992;4.198;2022-11-21T00:13:47;3.08;;;1.23;;
38853;SDS011;24606;51.992;4.198;2022-11-21T00:18:50;2.55;;;1.15;;
38853;SDS011;24606;51.992;4.198;2022-11-21T00:23:52;5.07;;;1.10;;
38853;SDS011;24606;51.992;4.198;2022-11-21T00:28:54;2.85;;;1.10;;
38853;SDS011;24606;51.992;4.198;2022-11-21T00:33:57;2.60;;;1.45;;
38853;SDS011;24606;51.992;4.198;2022-11-21T00:38:59;3.22;;;1.25;;
38853;SDS011;24606;51.992;4.198;2022-11-21T00:44:01;2.63;;;1.63;;
38853;SDS011;24606;51.992;4.198;2022-11-21T00:49:04;1.95;;;1.20;;
38853;SDS011;24606;51.992;4.198;2022-11-21T00:54:07;3.78;;;1.73;;
38853;SDS011;24606;51.992;4.198;2022-11-21T01:04:12;5.30;;;1.20;;
38853;SDS011;24606;51.992;4.198;2022-11-21T01:09:13;3.83;;;1.20;;
38853;SDS011;24606;51.992;4.198;2022-11-21T01:14:15;1.85;;;1.23;;
38853;SDS011;24606;51.992;4.198;2022-11-21T01:19:19;2.58;;;1.30;;
38853;SDS011;24606;51.992;4.198;2022-11-21T01:24:21;2.80;;;1.38;;
38853;SDS011;24606;51.992;4.198;2022-11-21T01:29:23;2.22;;;1.40;;
38853;SDS011;24606;51.992;4.198;2022-11-21T01:34:26;2.35;;;1.30;;
38853;SDS011;24606;51.992;4.198;2022-11-21T01:39:28;1.65;;;1.30;;
38853;SDS011;24606;51.992;4.198;2022-11-21T01:44:45;3.45;;;1.33;;
38853;SDS011;24606;51.992;4.198;2022-11-21T01:49:50;1.30;;;1.02;;
38853;SDS011;24606;51.992;4.198;2022-11-21T01:54:54;3.85;;;1.17;;
38853;SDS011;24606;51.992;4.198;2022-11-21T01:59:59;4.15;;;1.00;;
38853;SDS011;24606;51.992;4.198;2022-11-21T02:05:08;5.05;;;1.58;;
38853;SDS011;24606;51.992;4.198;2022-11-21T02:10:13;2.10;;;1.20;;
38853;SDS011;24606;51.992;4.198;2022-11-21T02:15:16;2.67;;;1.10;;
38853;SDS011;24606;51.992;4.198;2022-11-21T02:20:21;4.82;;;1.38;;
38853;SDS011;24606;51.992;4.198;2022-11-21T02:25:26;2.53;;;1.40;;
38853;SDS011;24606;51.992;4.198;2022-11-21T02:30:30;3.88;;;1.45;;
38853;SDS011;24606;51.992;4.198;2022-11-21T02:35:34;3.22;;;1.65;;
38853;SDS011;24606;51.992;4.198;2022-11-21T02:40:38;1.50;;;1.17;;
38853;SDS011;24606;51.992;4.198;2022-11-21T02:45:44;2.90;;;1.58;;
38853;SDS011;24606;51.992;4.198;2022-11-21T02:50:47;1.95;;;1.55;;
38853;SDS011;24606;51.992;4.198;2022-11-21T02:55:50;3.10;;;1.58;;
38853;SDS011;24606;51.992;4.198;2022-11-21T03:00:52;3.85;;;1.83;;
38853;SDS011;24606;51.992;4.198;2022-11-21T03:05:54;3.65;;;2.10;;
38853;SDS011;24606;51.992;4.198;2022-11-21T03:15:59;4.25;;;2.00;;
38853;SDS011;24606;51.992;4.198;2022-11-21T03:21:01;3.67;;;2.22;;
38853;SDS011;24606;51.992;4.198;2022-11-21T03:26:04;4.82;;;2.00;;
38853;SDS011;24606;51.992;4.198;2022-11-21T03:31:06;3.63;;;2.20;;
38853;SDS011;24606;51.992;4.198;2022-11-21T03:36:08;3.55;;;1.70;;
38853;SDS011;24606;51.992;4.198;2022-11-21T03:41:11;4.40;;;2.23;;
38853;SDS011;24606;51.992;4.198;2022-11-21T03:46:27;5.45;;;2.33;;
38853;SDS011;24606;51.992;4.198;2022-11-21T03:51:31;3.28;;;2.30;;
38853;SDS011;24606;51.992;4.198;2022-11-21T03:56:34;2.80;;;1.90;;
38853;SDS011;24606;51.992;4.198;2022-11-21T04:01:36;2.75;;;2.17;;
38853;SDS011;24606;51.992;4.198;2022-11-21T04:06:38;2.83;;;2.17;;
38853;SDS011;24606;51.992;4.198;2022-11-21T04:11:41;3.33;;;2.37;;
38853;SDS011;24606;51.992;4.198;2022-11-21T04:16:43;3.28;;;2.45;;
38853;SDS011;24606;51.992;4.198;2022-11-21T04:21:45;3.08;;;1.98;;
38853;SDS011;24606;51.992;4.198;2022-11-21T04:26:48;4.78;;;2.38;;
38853;SDS011;24606;51.992;4.198;2022-11-21T04:31:49;3.75;;;2.15;;
38853;SDS011;24606;51.992;4.198;2022-11-21T04:36:51;2.40;;;2.00;;
38853;SDS011;24606;51.992;4.198;2022-11-21T04:41:54;3.57;;;1.93;;
38853;SDS011;24606;51.992;4.198;2022-11-21T04:46:56;2.58;;;1.90;;
38853;SDS011;24606;51.992;4.198;2022-11-21T04:57:02;4.93;;;2.22;;
38853;SDS011;24606;51.992;4.198;2022-11-21T05:02:04;3.05;;;2.35;;
38853;SDS011;24606;51.992;4.198;2022-11-21T05:07:05;2.38;;;1.95;;
38853;SDS011;24606;51.992;4.198;2022-11-21T05:12:09;2.63;;;2.17;;
38853;SDS011;24606;51.992;4.198;2022-11-21T05:17:29;2.55;;;2.20;;
38853;SDS011;24606;51.992;4.198;2022-11-21T05:22:31;2.67;;;1.75;;
38853;SDS011;24606;51.992;4.198;2022-11-21T05:27:34;2.80;;;2.00;;
38853;SDS011;24606;51.992;4.198;2022-11-21T05:32:36;3.08;;;1.83;;
38853;SDS011;24606;51.992;4.198;2022-11-21T05:37:37;3.17;;;2.38;;
38853;SDS011;24606;51.992;4.198;2022-11-21T05:42:41;2.87;;;2.03;;
38853;SDS011;24606;51.992;4.198;2022-11-21T05:48:00;2.22;;;1.90;;
38853;SDS011;24606;51.992;4.198;2022-11-21T05:53:06;3.83;;;2.53;;
38853;SDS011;24606;51.992;4.198;2022-11-21T05:58:09;2.90;;;2.47;;
38853;SDS011;24606;51.992;4.198;2022-11-21T06:03:11;2.30;;;1.95;;
38853;SDS011;24606;51.992;4.198;2022-11-21T06:08:30;2.78;;;2.17;;
38853;SDS011;24606;51.992;4.198;2022-11-21T06:13:35;2.95;;;2.45;;
38853;SDS011;24606;51.992;4.198;2022-11-21T06:18:38;2.55;;;2.35;;
38853;SDS011;24606;51.992;4.198;2022-11-21T06:23:41;8.80;;;2.90;;
38853;SDS011;24606;51.992;4.198;2022-11-21T06:33:50;5.07;;;2.10;;
38853;SDS011;24606;51.992;4.198;2022-11-21T06:38:52;3.65;;;2.30;;
38853;SDS011;24606;51.992;4.198;2022-11-21T06:43:58;2.53;;;2.10;;
38853;SDS011;24606;51.992;4.198;2022-11-21T06:49:01;5.82;;;2.33;;
38853;SDS011;24606;51.992;4.198;2022-11-21T06:54:03;5.60;;;2.45;;
38853;SDS011;24606;51.992;4.198;2022-11-21T06:59:06;2.72;;;2.05;;
38853;SDS011;24606;51.992;4.198;2022-11-21T07:15:26;3.08;;;2.28;;
38853;SDS011;24606;51.992;4.198;2022-11-21T07:20:28;2.40;;;1.92;;
38853;SDS011;24606;51.992;4.198;2022-11-21T07:25:30;2.97;;;1.90;;
38853;SDS011;24606;51.992;4.198;2022-11-21T07:30:33;4.90;;;2.58;;
38853;SDS011;24606;51.992;4.198;2022-11-21T07:35:35;4.95;;;2.28;;
38853;SDS011;24606;51.992;4.198;2022-11-21T07:40:37;3.63;;;2.40;;
38853;SDS011;24606;51.992;4.198;2022-11-21T07:45:40;3.40;;;2.25;;
38853;SDS011;24606;51.992;4.198;2022-11-21T07:50:42;3.78;;;2.35;;
38853;SDS011;24606;51.992;4.198;2022-11-21T07:55:44;3.30;;;2.10;;
38853;SDS011;24606;51.992;4.198;2022-11-21T08:00:48;7.70;;;2.80;;
38853;SDS011;24606;51.992;4.198;2022-11-21T08:05:50;3.88;;;2.30;;
38853;SDS011;24606;51.992;4.198;2022-11-21T08:10:51;5.03;;;2.65;;
38853;SDS011;24606;51.992;4.198;2022-11-21T08:15:55;3.23;;;2.07;;
38853;SDS011;24606;51.992;4.198;2022-11-21T08:20:59;3.25;;;2.20;;
38853;SDS011;24606;51.992;4.198;2022-11-21T08:26:01;2.72;;;2.15;;
38853;SDS011;24606;51.992;4.198;2022-11-21T08:31:04;2.33;;;1.92;;
38853;SDS011;24606;51.992;4.198;2022-11-21T08:36:06;3.10;;;2.05;;
38853;SDS011;24606;51.992;4.198;2022-11-21T08:41:10;3.63;;;1.92;;
38853;SDS011;24606;51.992;4.198;2022-11-21T08:46:31;3.25;;;1.90;;
38853;SDS011;24606;51.992;4.198;2022-11-21T08:51:36;3.22;;;2.00;;
38853;SDS011;24606;51.992;4.198;2022-11-21T08:56:38;9.50;;;1.88;;
38853;SDS011;24606;51.992;4.198;2022-11-21T09:01:41;4.68;;;2.30;;
38853;SDS011;24606;51.992;4.198;2022-11-21T09:06:44;6.10;;;1.90;;
38853;SDS011;24606;51.992;4.198;2022-11-21T09:11:45;3.20;;;2.03;;
38853;SDS011;24606;51.992;4.198;2022-11-21T09:16:49;3.20;;;2.53;;
38853;SDS011;24606;51.992;4.198;2022-11-21T09:22:09;3.15;;;1.80;;
38853;SDS011;24606;51.992;4.198;2022-11-21T09:27:10;3.03;;;1.70;;
38853;SDS011;24606;51.992;4.198;2022-11-21T09:32:14;2.22;;;1.80;;
38853;SDS011;24606;51.992;4.198;2022-11-21T09:37:16;4.82;;;1.65;;
38853;SDS011;24606;51.992;4.198;2022-11-21T09:42:25;2.72;;;1.80;;
38853;SDS011;24606;51.992;4.198;2022-11-21T09:47:43;4.35;;;1.75;;
38853;SDS011;24606;51.992;4.198;2022-11-21T09:52:48;3.45;;;1.50;;
38853;SDS011;24606;51.992;4.198;2022-11-21T09:57:56;3.92;;;1.50;;
38853;SDS011;24606;51.992;4.198;2022-11-21T10:03:02;2.75;;;1.50;;
38853;SDS011;24606;51.992;4.198;2022-11-21T10:08:05;3.42;;;2.15;;
38853;SDS011;24606;51.992;4.198;2022-11-21T10:13:18;2.38;;;1.33;;
38853;SDS011;24606;51.992;4.198;2022-11-21T10:18:38;3.33;;;1.40;;
38853;SDS011;24606;51.992;4.198;2022-11-21T10:24:07;4.22;;;1.63;;
38853;SDS011;24606;51.992;4.198;2022-11-21T10:29:21;2.83;;;1.30;;
38853;SDS011;24606;51.992;4.198;2022-11-21T10:34:28;2.92;;;1.40;;
38853;SDS011;24606;51.992;4.198;2022-11-21T10:39:34;1.38;;;0.90;;
38853;SDS011;24606;51.992;4.198;2022-11-21T10:44:41;1.52;;;1.33;;
38853;SDS011;24606;51.992;4.198;2022-11-21T10:50:02;3.28;;;1.40;;
38853;SDS011;24606;51.992;4.198;2022-11-21T10:55:15;1.52;;;1.00;;
38853;SDS011;24606;51.992;4.198;2022-11-21T11:00:22;5.47;;;1.42;;
38853;SDS011;24606;51.992;4.198;2022-11-21T11:05:26;2.53;;;1.20;;
38853;SDS011;24606;51.992;4.198;2022-11-21T11:10:30;4.22;;;1.38;;
38853;SDS011;24606;51.992;4.198;2022-11-21T11:15:33;2.60;;;1.30;;
38853;SDS011;24606;51.992;4.198;2022-11-21T11:20:40;6.13;;;2.08;;
38853;SDS011;24606;51.992;4.198;2022-11-21T11:25:44;6.10;;;1.20;;
38853;SDS011;24606;51.992;4.198;2022-11-21T11:30:47;2.78;;;1.00;;
38853;SDS011;24606;51.992;4.198;2022-11-21T11:35:51;3.72;;;1.00;;
38853;SDS011;24606;51.992;4.198;2022-11-21T11:40:54;4.47;;;1.10;;
38853;SDS011;24606;51.992;4.198;2022-11-21T11:51:49;4.65;;;1.00;;
38853;SDS011;24606;51.992;4.198;2022-11-21T11:56:54;4.53;;;1.35;;
38853;SDS011;24606;51.992;4.198;2022-11-21T12:01:58;1.60;;;1.00;;
38853;SDS011;24606;51.992;4.198;2022-11-21T12:07:05;2.58;;;1.00;;
38853;SDS011;24606;51.992;4.198;2022-11-21T12:12:14;2.50;;;0.77;;
38853;SDS011;24606;51.992;4.198;2022-11-21T12:17:24;4.80;;;0.95;;
38853;SDS011;24606;51.992;4.198;2022-11-21T12:22:34;5.28;;;0.82;;
38853;SDS011;24606;51.992;4.198;2022-11-21T12:27:36;4.47;;;1.05;;
38853;SDS011;24606;51.992;4.198;2022-11-21T12:32:48;2.85;;;1.13;;
38853;SDS011;24606;51.992;4.198;2022-11-21T12:38:00;1.83;;;0.80;;
38853;SDS011;24606;51.992;4.198;2022-11-21T12:43:14;3.13;;;0.90;;
38853;SDS011;24606;51.992;4.198;2022-11-21T12:48:27;1.60;;;0.68;;
38853;SDS011;24606;51.992;4.198;2022-11-21T12:54:00;3.38;;;0.95;;
38853;SDS011;24606;51.992;4.198;2022-11-21T12:59:29;1.65;;;0.88;;
38853;SDS011;24606;51.992;4.198;2022-11-21T13:04:36;3.75;;;1.00;;
38853;SDS011;24606;51.992;4.198;2022-11-21T13:09:42;1.67;;;0.70;;
38853;SDS011;24606;51.992;4.198;2022-11-21T13:14:48;3.78;;;0.70;;
38853;SDS011;24606;51.992;4.198;2022-11-21T13:19:54;1.55;;;0.80;;
38853;SDS011;24606;51.992;4.198;2022-11-21T13:25:01;3.50;;;1.08;;
38853;SDS011;24606;51.992;4.198;2022-11-21T13:30:16;1.25;;;0.77;;
38853;SDS011;24606;51.992;4.198;2022-11-21T13:41:00;5.28;;;1.17;;
38853;SDS011;24606;51.992;4.198;2022-11-21T13:51:54;3.67;;;0.80;;
38853;SDS011;24606;51.992;4.198;2022-11-21T14:02:10;2.53;;;0.85;;
38853;SDS011;24606;51.992;4.198;2022-11-21T14:07:26;3.80;;;1.10;;
38853;SDS011;24606;51.992;4.198;2022-11-21T14:12:32;2.67;;;0.98;;
38853;SDS011;24606;51.992;4.198;2022-11-21T14:17:39;2.58;;;1.10;;
38853;SDS011;24606;51.992;4.198;2022-11-21T14:22:45;2.88;;;1.15;;
38853;SDS011;24606;51.992;4.198;2022-11-21T14:27:55;4.53;;;1.27;;
38853;SDS011;24606;51.992;4.198;2022-11-21T14:38:21;2.80;;;0.95;;
38853;SDS011;24606;51.992;4.198;2022-11-21T14:43:29;3.67;;;0.90;;
38853;SDS011;24606;51.992;4.198;2022-11-21T14:48:32;1.27;;;0.73;;
38853;SDS011;24606;51.992;4.198;2022-11-21T14:53:34;3.80;;;0.90;;
38853;SDS011;24606;51.992;4.198;2022-11-21T14:58:44;3.72;;;0.90;;
38853;SDS011;24606;51.992;4.198;2022-11-21T15:03:52;2.63;;;1.10;;
38853;SDS011;24606;51.992;4.198;2022-11-21T15:08:56;5.00;;;0.80;;
38853;SDS011;24606;51.992;4.198;2022-11-21T15:14:00;2.85;;;0.85;;
38853;SDS011;24606;51.992;4.198;2022-11-21T15:19:07;5.40;;;1.10;;
38853;SDS011;24606;51.992;4.198;2022-11-21T15:24:16;4.80;;;0.77;;
38853;SDS011;24606;51.992;4.198;2022-11-21T15:29:21;4.13;;;1.00;;
38853;SDS011;24606;51.992;4.198;2022-11-21T15:34:26;2.70;;;1.02;;
38853;SDS011;24606;51.992;4.198;2022-11-21T15:39:28;5.32;;;1.17;;
38853;SDS011;24606;51.992;4.198;2022-11-21T15:44:32;2.33;;;0.90;;
38853;SDS011;24606;51.992;4.198;2022-11-21T15:49:34;2.20;;;0.93;;
38853;SDS011;24606;51.992;4.198;2022-11-21T15:54:36;2.78;;;1.00;;
38853;SDS011;24606;51.992;4.198;2022-11-21T15:59:39;5.20;;;1.10;;
38853;SDS011;24606;51.992;4.198;2022-11-21T16:04:41;3.90;;;1.38;;
38853;SDS011;24606;51.992;4.198;2022-11-21T16:09:43;6.07;;;1.83;;
38853;SDS011;24606;51.992;4.198;2022-11-21T16:14:47;2.85;;;0.90;;
38853;SDS011;24606;51.992;4.198;2022-11-21T16:19:48;2.67;;;1.13;;
38853;SDS011;24606;51.992;4.198;2022-11-21T16:24:50;2.58;;;1.00;;
38853;SDS011;24606;51.992;4.198;2022-11-21T16:29:54;3.65;;;0.98;;
38853;SDS011;24606;51.992;4.198;2022-11-21T16:34:56;5.72;;;1.38;;
38853;SDS011;24606;51.992;4.198;2022-11-21T16:45:01;4.53;;;1.53;;
38853;SDS011;24606;51.992;4.198;2022-11-21T16:50:04;3.60;;;1.17;;
38853;SDS011;24606;51.992;4.198;2022-11-21T16:55:06;3.25;;;1.00;;
38853;SDS011;24606;51.992;4.198;2022-11-21T17:00:10;10.05;;;2.08;;
38853;SDS011;24606;51.992;4.198;2022-11-21T17:05:13;9.05;;;1.80;;
38853;SDS011;24606;51.992;4.198;2022-11-21T17:10:15;12.00;;;2.30;;
38853;SDS011;24606;51.992;4.198;2022-11-21T17:15:19;6.85;;;1.98;;
38853;SDS011;24606;51.992;4.198;2022-11-21T17:20:21;11.13;;;2.60;;
38853;SDS011;24606;51.992;4.198;2022-11-21T17:25:23;5.40;;;2.90;;
38853;SDS011;24606;51.992;4.198;2022-11-21T17:30:26;13.85;;;3.22;;
38853;SDS011;24606;51.992;4.198;2022-11-21T17:35:29;7.22;;;2.40;;
38853;SDS011;24606;51.992;4.198;2022-11-21T17:40:31;8.95;;;2.17;;
38853;SDS011;24606;51.992;4.198;2022-11-21T17:45:35;12.25;;;2.88;;
38853;SDS011;24606;51.992;4.198;2022-11-21T17:50:37;8.07;;;2.28;;
38853;SDS011;24606;51.992;4.198;2022-11-21T17:55:39;11.85;;;1.98;;
38853;SDS011;24606;51.992;4.198;2022-11-21T18:00:42;11.18;;;2.35;;
38853;SDS011;24606;51.992;4.198;2022-11-21T18:05:44;8.38;;;2.28;;
38853;SDS011;24606;51.992;4.198;2022-11-21T18:10:50;10.60;;;2.38;;
38853;SDS011;24606;51.992;4.198;2022-11-21T18:15:53;17.08;;;2.85;;
38853;SDS011;24606;51.992;4.198;2022-11-21T18:21:00;6.55;;;1.88;;
38853;SDS011;24606;51.992;4.198;2022-11-21T18:26:03;13.07;;;2.58;;
38853;SDS011;24606;51.992;4.198;2022-11-21T18:31:09;10.82;;;2.35;;
38853;SDS011;24606;51.992;4.198;2022-11-21T18:36:13;12.10;;;2.90;;
38853;SDS011;24606;51.992;4.198;2022-11-21T18:41:17;9.90;;;3.50;;
38853;SDS011;24606;51.992;4.198;2022-11-21T18:46:22;10.88;;;4.03;;
38853;SDS011;24606;51.992;4.198;2022-11-21T18:51:25;13.90;;;3.33;;
38853;SDS011;24606;51.992;4.198;2022-11-21T18:56:29;13.60;;;4.15;;
38853;SDS011;24606;51.992;4.198;2022-11-21T19:01:33;11.90;;;3.63;;
38853;SDS011;24606;51.992;4.198;2022-11-21T19:06:35;8.75;;;3.50;;
38853;SDS011;24606;51.992;4.198;2022-11-21T19:11:37;12.45;;;2.88;;
38853;SDS011;24606;51.992;4.198;2022-11-21T19:16:41;14.38;;;4.10;;
38853;SDS011;24606;51.992;4.198;2022-11-21T19:21:43;10.63;;;4.10;;
38853;SDS011;24606;51.992;4.198;2022-11-21T19:26:46;21.10;;;6.45;;
38853;SDS011;24606;51.992;4.198;2022-11-21T19:31:50;17.63;;;4.60;;
38853;SDS011;24606;51.992;4.198;2022-11-21T19:36:52;9.10;;;3.35;;
38853;SDS011;24606;51.992;4.198;2022-11-21T19:41:54;8.40;;;3.78;;
38853;SDS011;24606;51.992;4.198;2022-11-21T19:46:57;8.88;;;3.55;;
38853;SDS011;24606;51.992;4.198;2022-11-21T19:51:59;7.75;;;2.72;;
38853;SDS011;24606;51.992;4.198;2022-11-21T19:57:01;9.25;;;3.00;;
38853;SDS011;24606;51.992;4.198;2022-11-21T20:02:05;4.03;;;1.70;;
38853;SDS011;24606;51.992;4.198;2022-11-21T20:07:13;8.25;;;2.35;;
38853;SDS011;24606;51.992;4.198;2022-11-21T20:12:15;5.60;;;1.88;;
38853;SDS011;24606;51.992;4.198;2022-11-21T20:17:18;3.13;;;1.60;;
38853;SDS011;24606;51.992;4.198;2022-11-21T20:22:20;7.05;;;1.73;;
38853;SDS011;24606;51.992;4.198;2022-11-21T20:27:21;7.38;;;1.50;;
38853;SDS011;24606;51.992;4.198;2022-11-21T20:32:25;7.13;;;2.00;;
38853;SDS011;24606;51.992;4.198;2022-11-21T20:37:27;6.93;;;1.40;;
38853;SDS011;24606;51.992;4.198;2022-11-21T20:42:29;8.00;;;1.80;;
38853;SDS011;24606;51.992;4.198;2022-11-21T20:47:33;8.95;;;2.40;;
38853;SDS011;24606;51.992;4.198;2022-11-21T20:52:37;11.50;;;3.10;;
38853;SDS011;24606;51.992;4.198;2022-11-21T20:57:38;14.15;;;6.28;;
38853;SDS011;24606;51.992;4.198;2022-11-21T21:02:42;10.18;;;2.85;;
38853;SDS011;24606;51.992;4.198;2022-11-21T21:07:44;7.93;;;3.25;;
38853;SDS011;24606;51.992;4.198;2022-11-21T21:12:46;8.93;;;3.50;;
38853;SDS011;24606;51.992;4.198;2022-11-21T21:17:50;8.77;;;3.53;;
38853;SDS011;24606;51.992;4.198;2022-11-21T21:22:52;13.75;;;4.60;;
38853;SDS011;24606;51.992;4.198;2022-11-21T21:27:55;20.83;;;5.10;;
38853;SDS011;24606;51.992;4.198;2022-11-21T21:32:58;12.25;;;4.43;;
38853;SDS011;24606;51.992;4.198;2022-11-21T21:38:00;9.85;;;2.72;;
38853;SDS011;24606;51.992;4.198;2022-11-21T21:43:02;9.95;;;2.30;;
38853;SDS011;24606;51.992;4.198;2022-11-21T21:48:06;20.77;;;3.75;;
38853;SDS011;24606;51.992;4.198;2022-11-21T21:53:07;6.55;;;2.65;;
38853;SDS011;24606;51.992;4.198;2022-11-21T21:58:09;12.52;;;3.65;;
38853;SDS011;24606;51.992;4.198;2022-11-21T22:03:13;12.25;;;3.17;;
38853;SDS011;24606;51.992;4.198;2022-11-21T22:08:15;8.70;;;1.92;;
38853;SDS011;24606;51.992;4.198;2022-11-21T22:13:17;7.38;;;2.42;;
38853;SDS011;24606;51.992;4.198;2022-11-21T22:18:20;13.35;;;2.22;;
38853;SDS011;24606;51.992;4.198;2022-11-21T22:23:22;4.90;;;2.15;;
38853;SDS011;24606;51.992;4.198;2022-11-21T22:28:26;7.05;;;2.38;;
38853;SDS011;24606;51.992;4.198;2022-11-21T22:33:30;5.57;;;1.42;;
38853;SDS011;24606;51.992;4.198;2022-11-21T22:38:32;5.35;;;1.85;;
38853;SDS011;24606;51.992;4.198;2022-11-21T22:43:35;8.45;;;2.20;;
38853;SDS011;24606;51.992;4.198;2022-11-21T22:48:38;2.85;;;1.13;;
38853;SDS011;24606;51.992;4.198;2022-11-21T22:53:40;6.07;;;1.70;;
38853;SDS011;24606;51.992;4.198;2022-11-21T22:58:42;7.50;;;1.85;;
38853;SDS011;24606;51.992;4.198;2022-11-21T23:03:47;8.65;;;1.50;;
38853;SDS011;24606;51.992;4.198;2022-11-21T23:08:49;5.80;;;1.67;;
38853;SDS011;24606;51.992;4.198;2022-11-21T23:13:52;7.93;;;1.30;;
38853;SDS011;24606;51.992;4.198;2022-11-21T23:18:56;3.10;;;0.90;;
38853;SDS011;24606;51.992;4.198;2022-11-21T23:23:58;3.58;;;1.05;;
38853;SDS011;24606;51.992;4.198;2022-11-21T23:29:00;5.07;;;1.17;;
38853;SDS011;24606;51.992;4.198;2022-11-21T23:34:03;5.72;;;1.83;;
38853;SDS011;24606;51.992;4.198;2022-11-21T23:39:05;8.60;;;1.50;;
38853;SDS011;24606;51.992;4.198;2022-11-21T23:44:07;2.17;;;0.82;;
38853;SDS011;24606;51.992;4.198;2022-11-21T23:49:10;8.65;;;1.45;;
38853;SDS011;24606;51.992;4.198;2022-11-21T23:54:12;2.92;;;1.20;;
38853;SDS011;24606;51.992;4.198;2022-11-21T23:59:14;2.22;;;1.00;;
